Time;durP1;ratioP1;P1;durP2;ratioP2;P2;SDS_P1;SDS_P2;PMS_P1;PMS_P2;Temp;Humidity;BMP_temperature;BMP_pressure;BME280_temperature;BME280_humidity;BME280_pressure;Samples;Min_cycle;Max_cycle;Signal;HPM_P1;HPM_P2
2021/05/22 18:19:09;;;;;;;;;2.33;2.33;;;;;17.63;51.99;97842.09;6211395;22;103209;-96
2021/05/22 18:21:37;;;;;;;;;1.00;1.00;;;;;17.64;51.75;97819.97;6167878;22;102077;-96
2021/05/22 18:24:06;;;;;;;;;2.67;2.33;;;;;17.70;51.73;97788.00;6123365;22;102077;-96
2021/05/22 18:26:35;;;;;;;;;5.00;3.67;;;;;17.62;51.08;97805.72;6107240;22;101671;-96
2021/05/22 18:29:06;;;;;;;;;2.67;2.00;;;;;17.63;51.21;97820.22;6077441;22;108362;-96
2021/05/22 18:31:36;;;;;;;;;3.00;3.00;;;;;17.66;52.04;97841.56;6141494;22;101680;-96
2021/05/22 18:34:11;;;;;;;;;1.00;1.00;;;;;17.60;51.42;97835.25;6027060;22;102556;-96
2021/05/22 18:36:52;;;;;;;;;2.33;2.33;;;;;17.68;51.79;97858.53;5880937;22;103171;-96
2021/05/22 18:39:41;;;;;;;;;5.33;3.00;;;;;17.62;51.84;97854.94;5890023;22;103252;-96
2021/05/22 18:42:18;;;;;;;;;4.00;3.00;;;;;17.60;52.00;97851.66;5839190;22;102143;-96
2021/05/22 18:45:09;;;;;;;;;3.00;2.00;;;;;17.62;50.96;97881.47;5977218;22;102125;-96
2021/05/22 18:47:56;;;;;;;;;3.00;3.00;;;;;17.66;51.89;97894.34;5875137;22;101304;-96
2021/05/22 18:50:39;;;;;;;;;3.00;3.00;;;;;17.61;51.27;97891.56;5812915;22;106555;-96
2021/05/22 18:53:11;;;;;;;;;4.00;4.00;;;;;17.59;51.59;97871.06;5912300;22;103385;-96
2021/05/22 18:55:41;;;;;;;;;3.00;3.00;;;;;17.60;51.94;97905.53;5814971;22;103135;-96
2021/05/22 18:58:18;;;;;;;;;3.67;3.67;;;;;17.58;51.83;97881.16;5916857;22;101350;-96
2021/05/22 19:01:20;;;;;;;;;4.00;3.33;;;;;17.58;51.06;97893.97;5810115;22;102255;-96
2021/05/22 19:04:09;;;;;;;;;5.00;5.00;;;;;17.48;51.60;97889.25;5759454;22;101687;-96
2021/05/22 19:06:50;;;;;;;;;4.67;3.67;;;;;17.56;50.58;97894.22;5824357;22;103738;-96
2021/05/22 19:09:29;;;;;;;;;4.00;3.00;;;;;17.53;51.52;97905.69;5955812;22;102151;-96
2021/05/22 19:12:25;;;;;;;;;8.33;6.00;;;;;17.52;51.69;97909.50;5781596;22;106701;-96
2021/05/22 19:15:03;;;;;;;;;5.33;4.67;;;;;17.52;51.17;97923.19;5842438;22;102389;-96
2021/05/22 19:17:45;;;;;;;;;6.33;5.00;;;;;17.54;51.46;97945.63;5903705;22;102253;-96
2021/05/22 19:20:23;;;;;;;;;4.33;4.00;;;;;17.51;51.43;97935.22;5850296;22;102945;-96
2021/05/22 19:23:01;;;;;;;;;7.00;5.00;;;;;17.49;51.11;97948.31;5903969;22;103115;-96
2021/05/22 19:25:58;;;;;;;;;5.00;5.00;;;;;17.51;50.35;97968.03;5888616;22;101364;-96
2021/05/22 19:28:27;;;;;;;;;7.00;5.67;;;;;17.49;51.02;97961.97;5980784;22;102430;-96
2021/05/22 19:31:14;;;;;;;;;6.33;4.33;;;;;17.52;51.20;97972.38;6092311;22;103791;-96
2021/05/22 19:33:42;;;;;;;;;5.00;4.00;;;;;17.47;50.92;97961.41;5947518;22;104009;-96
2021/05/22 19:36:14;;;;;;;;;3.67;3.00;;;;;17.50;50.51;97955.44;5989712;22;102085;-96
2021/05/22 19:38:54;;;;;;;;;6.67;4.67;;;;;17.45;50.31;97958.13;5979263;22;101386;-96
2021/05/22 19:41:35;;;;;;;;;4.67;4.00;;;;;17.46;50.93;97981.66;6012326;22;102051;-96
2021/05/22 19:44:10;;;;;;;;;4.00;4.00;;;;;17.46;50.65;97987.13;5994980;22;106397;-96
2021/05/22 19:46:38;;;;;;;;;6.00;4.67;;;;;17.42;51.07;97964.91;6160295;22;102450;-96
2021/05/22 19:49:05;;;;;;;;;5.00;4.00;;;;;17.47;50.69;97999.66;6165465;22;102066;-96
2021/05/22 19:51:34;;;;;;;;;5.00;5.00;;;;;17.50;50.99;97999.16;6187716;22;101936;-96
2021/05/22 19:54:05;;;;;;;;;5.00;4.00;;;;;17.42;50.62;97958.66;6111335;22;106687;-96
2021/05/22 19:56:34;;;;;;;;;4.00;3.33;;;;;17.40;50.38;98005.38;5968230;22;102075;-96
2021/05/22 19:59:17;;;;;;;;;5.67;4.33;;;;;17.42;50.21;98040.66;5955513;22;102841;-96
2021/05/22 20:01:54;;;;;;;;;5.33;4.33;;;;;17.44;50.93;98015.78;5924428;22;102240;-96
2021/05/22 20:04:33;;;;;;;;;4.67;4.33;;;;;17.41;50.52;97998.00;5988576;22;106063;-96
2021/05/22 20:07:08;;;;;;;;;4.00;4.00;;;;;17.46;50.98;98017.19;5843462;22;105013;-96
2021/05/22 20:09:44;;;;;;;;;6.00;5.00;;;;;17.39;50.44;98003.72;5894687;22;102859;-96
